sensor_id;sensor_type;location;lat;lon;timestamp;pressure;altitude;pressure_sealevel;temperature;humidity
46347;BME280;32057;47.830;19.046;2023-02-03T00:00:14;100824.66;;;1.90;100.00
46347;BME280;32057;47.830;19.046;2023-02-03T00:02:41;100820.19;;;1.87;100.00
46347;BME280;32057;47.830;19.046;2023-02-03T00:05:07;100817.94;;;1.92;100.00
46347;BME280;32057;47.830;19.046;2023-02-03T00:07:32;100829.97;;;1.93;100.00
46347;BME280;32057;47.830;19.046;2023-02-03T00:09:59;100829.09;;;1.92;100.00
46347;BME280;32057;47.830;19.046;2023-02-03T00:12:24;100839.06;;;1.88;100.00
46347;BME280;32057;47.830;19.046;2023-02-03T00:14:50;100838.47;;;1.92;100.00
46347;BME280;32057;47.830;19.046;2023-02-03T00:17:15;100846.16;;;1.92;100.00
46347;BME280;32057;47.830;19.046;2023-02-03T00:19:40;100852.97;;;1.91;99.99
46347;BME280;32057;47.830;19.046;2023-02-03T00:22:06;100850.31;;;1.90;100.00
46347;BME280;32057;47.830;19.046;2023-02-03T00:24:31;100851.69;;;1.85;99.62
46347;BME280;32057;47.830;19.046;2023-02-03T00:26:57;100858.50;;;1.84;99.37
46347;BME280;32057;47.830;19.046;2023-02-03T00:29:22;100869.75;;;1.86;97.56
46347;BME280;32057;47.830;19.046;2023-02-03T00:31:51;100871.34;;;1.84;98.92
46347;BME280;32057;47.830;19.046;2023-02-03T00:34:16;100879.81;;;1.83;98.01
46347;BME280;32057;47.830;19.046;2023-02-03T00:36:42;100876.97;;;1.78;97.81
46347;BME280;32057;47.830;19.046;2023-02-03T00:39:07;100881.28;;;1.79;96.55
46347;BME280;32057;47.830;19.046;2023-02-03T00:41:33;100886.63;;;1.83;95.82
46347;BME280;32057;47.830;19.046;2023-02-03T00:43:58;100880.50;;;1.81;96.21
46347;BME280;32057;47.830;19.046;2023-02-03T00:46:23;100881.09;;;1.76;95.74
46347;BME280;32057;47.830;19.046;2023-02-03T00:48:49;100892.16;;;1.75;95.89
46347;BME280;32057;47.830;19.046;2023-02-03T00:51:14;100891.38;;;1.76;94.46
46347;BME280;32057;47.830;19.046;2023-02-03T00:53:40;100893.72;;;1.73;94.55
46347;BME280;32057;47.830;19.046;2023-02-03T00:56:05;100899.78;;;1.74;92.67
46347;BME280;32057;47.830;19.046;2023-02-03T00:58:40;100907.75;;;1.78;91.63
46347;BME280;32057;47.830;19.046;2023-02-03T01:01:06;100908.06;;;1.70;92.37
46347;BME280;32057;47.830;19.046;2023-02-03T01:03:32;100912.97;;;1.67;92.30
46347;BME280;32057;47.830;19.046;2023-02-03T01:06:19;100919.97;;;1.56;92.81
46347;BME280;32057;47.830;19.046;2023-02-03T01:08:45;100924.88;;;1.53;93.75
46347;BME280;32057;47.830;19.046;2023-02-03T01:11:14;100934.94;;;1.50;93.81
46347;BME280;32057;47.830;19.046;2023-02-03T01:13:40;100929.41;;;1.44;94.08
46347;BME280;32057;47.830;19.046;2023-02-03T01:16:07;100934.34;;;1.41;93.45
46347;BME280;32057;47.830;19.046;2023-02-03T01:18:33;100931.56;;;1.37;94.35
46347;BME280;32057;47.830;19.046;2023-02-03T01:21:04;100938.66;;;1.28;94.54
46347;BME280;32057;47.830;19.046;2023-02-03T01:23:29;100933.13;;;1.22;94.94
46347;BME280;32057;47.830;19.046;2023-02-03T01:25:55;100934.47;;;1.17;95.22
46347;BME280;32057;47.830;19.046;2023-02-03T01:28:20;100939.41;;;1.14;95.42
46347;BME280;32057;47.830;19.046;2023-02-03T01:30:46;100937.38;;;1.10;94.83
46347;BME280;32057;47.830;19.046;2023-02-03T01:33:11;100932.06;;;1.07;94.77
46347;BME280;32057;47.830;19.046;2023-02-03T01:35:36;100935.22;;;1.03;94.64
46347;BME280;32057;47.830;19.046;2023-02-03T01:38:02;100929.09;;;1.01;94.26
46347;BME280;32057;47.830;19.046;2023-02-03T01:40:27;100929.78;;;0.98;94.52
46347;BME280;32057;47.830;19.046;2023-02-03T01:42:52;100935.47;;;0.94;93.18
46347;BME280;32057;47.830;19.046;2023-02-03T01:45:18;100939.69;;;0.93;94.08
46347;BME280;32057;47.830;19.046;2023-02-03T01:47:49;100938.69;;;0.91;94.21
46347;BME280;32057;47.830;19.046;2023-02-03T01:50:26;100946.19;;;0.88;94.55
46347;BME280;32057;47.830;19.046;2023-02-03T01:53:01;100943.53;;;0.87;93.27
46347;BME280;32057;47.830;19.046;2023-02-03T01:55:33;100953.06;;;0.89;93.91
46347;BME280;32057;47.830;19.046;2023-02-03T02:00:28;100957.28;;;1.01;94.08
46347;BME280;32057;47.830;19.046;2023-02-03T02:02:54;100956.81;;;1.06;93.79
46347;BME280;32057;47.830;19.046;2023-02-03T02:05:46;100962.28;;;0.99;88.78
46347;BME280;32057;47.830;19.046;2023-02-03T02:08:14;100961.75;;;0.91;92.38
46347;BME280;32057;47.830;19.046;2023-02-03T02:10:43;100957.78;;;0.83;93.41
46347;BME280;32057;47.830;19.046;2023-02-03T02:13:09;100955.78;;;0.79;93.32
46347;BME280;32057;47.830;19.046;2023-02-03T02:15:39;100958.25;;;0.77;93.20
46347;BME280;32057;47.830;19.046;2023-02-03T02:21:15;100951.47;;;0.78;93.90
46347;BME280;32057;47.830;19.046;2023-02-03T02:34:56;100957.81;;;0.71;93.57
46347;BME280;32057;47.830;19.046;2023-02-03T02:43:39;100961.94;;;0.21;91.17
46347;BME280;32057;47.830;19.046;2023-02-03T02:46:20;100966.28;;;-0.14;91.87
46347;BME280;32057;47.830;19.046;2023-02-03T02:48:56;100968.72;;;-0.15;94.54
46347;BME280;32057;47.830;19.046;2023-02-03T02:51:23;100967.72;;;-0.17;96.55
46347;BME280;32057;47.830;19.046;2023-02-03T02:53:53;100974.56;;;-0.28;95.27
46347;BME280;32057;47.830;19.046;2023-02-03T02:56:23;100987.88;;;-0.44;96.84
46347;BME280;32057;47.830;19.046;2023-02-03T02:58:50;100986.81;;;-0.36;97.46
46347;BME280;32057;47.830;19.046;2023-02-03T03:01:17;100989.91;;;-0.40;94.98
46347;BME280;32057;47.830;19.046;2023-02-03T03:03:43;100988.22;;;-0.85;95.28
46347;BME280;32057;47.830;19.046;2023-02-03T03:06:37;100990.25;;;-0.81;100.00
46347;BME280;32057;47.830;19.046;2023-02-03T03:09:13;100985.28;;;-1.02;97.83
46347;BME280;32057;47.830;19.046;2023-02-03T03:11:45;100982.59;;;-1.03;99.17
46347;BME280;32057;47.830;19.046;2023-02-03T03:14:12;100977.47;;;-1.03;98.35
46347;BME280;32057;47.830;19.046;2023-02-03T03:16:43;100985.75;;;-0.95;99.90
46347;BME280;32057;47.830;19.046;2023-02-03T03:19:15;100984.59;;;-0.77;99.87
46347;BME280;32057;47.830;19.046;2023-02-03T03:21:46;100985.06;;;-0.71;97.46
46347;BME280;32057;47.830;19.046;2023-02-03T03:24:17;100985.06;;;-0.71;98.97
46347;BME280;32057;47.830;19.046;2023-02-03T03:26:56;100990.63;;;-0.65;100.00
46347;BME280;32057;47.830;19.046;2023-02-03T03:31:51;100995.16;;;-0.72;99.42
46347;BME280;32057;47.830;19.046;2023-02-03T03:34:17;100992.72;;;-0.71;99.94
46347;BME280;32057;47.830;19.046;2023-02-03T03:42:09;100999.41;;;-1.17;98.39
46347;BME280;32057;47.830;19.046;2023-02-03T03:44:42;100999.16;;;-1.20;99.59
46347;BME280;32057;47.830;19.046;2023-02-03T03:47:22;101001.16;;;-1.16;100.00
46347;BME280;32057;47.830;19.046;2023-02-03T03:49:49;100993.41;;;-0.95;100.00
46347;BME280;32057;47.830;19.046;2023-02-03T03:52:25;100998.50;;;-0.73;98.89
46347;BME280;32057;47.830;19.046;2023-02-03T03:54:53;100998.16;;;-0.66;100.00
46347;BME280;32057;47.830;19.046;2023-02-03T03:57:29;100997.56;;;-0.86;100.00
46347;BME280;32057;47.830;19.046;2023-02-03T03:59:59;100998.84;;;-0.91;100.00
46347;BME280;32057;47.830;19.046;2023-02-03T04:02:27;101000.88;;;-0.87;100.00
46347;BME280;32057;47.830;19.046;2023-02-03T04:04:55;101001.38;;;-0.69;100.00
46347;BME280;32057;47.830;19.046;2023-02-03T04:07:22;100988.97;;;-0.52;99.44
46347;BME280;32057;47.830;19.046;2023-02-03T04:09:47;100985.72;;;-0.28;95.38
46347;BME280;32057;47.830;19.046;2023-02-03T04:12:22;100990.19;;;-0.13;92.92
46347;BME280;32057;47.830;19.046;2023-02-03T04:14:47;100986.94;;;-0.11;92.89
46347;BME280;32057;47.830;19.046;2023-02-03T04:17:13;100977.97;;;0.06;90.82
46347;BME280;32057;47.830;19.046;2023-02-03T04:19:38;100984.84;;;0.07;89.48
46347;BME280;32057;47.830;19.046;2023-02-03T04:22:04;100995.31;;;0.10;89.88
46347;BME280;32057;47.830;19.046;2023-02-03T04:24:29;101001.66;;;0.15;89.80
46347;BME280;32057;47.830;19.046;2023-02-03T04:26:55;101002.00;;;0.20;89.91
46347;BME280;32057;47.830;19.046;2023-02-03T04:29:20;101002.53;;;0.28;88.68
46347;BME280;32057;47.830;19.046;2023-02-03T04:31:45;100991.09;;;0.23;87.75
46347;BME280;32057;47.830;19.046;2023-02-03T04:34:11;101003.31;;;0.15;88.39
46347;BME280;32057;47.830;19.046;2023-02-03T04:36:36;100999.97;;;0.16;88.95
46347;BME280;32057;47.830;19.046;2023-02-03T04:39:02;100998.31;;;0.16;89.31
46347;BME280;32057;47.830;19.046;2023-02-03T04:41:27;100997.53;;;0.17;88.61
46347;BME280;32057;47.830;19.046;2023-02-03T04:43:52;100979.84;;;0.21;90.41
46347;BME280;32057;47.830;19.046;2023-02-03T04:46:18;100964.94;;;0.27;88.70
46347;BME280;32057;47.830;19.046;2023-02-03T04:48:43;100962.94;;;0.23;88.86
46347;BME280;32057;47.830;19.046;2023-02-03T04:51:09;100955.44;;;0.26;89.93
46347;BME280;32057;47.830;19.046;2023-02-03T04:53:35;100944.22;;;0.24;90.78
46347;BME280;32057;47.830;19.046;2023-02-03T04:56:01;100942.22;;;0.19;88.05
46347;BME280;32057;47.830;19.046;2023-02-03T04:58:26;100935.91;;;0.26;88.15
46347;BME280;32057;47.830;19.046;2023-02-03T05:00:53;100940.53;;;0.32;91.79
46347;BME280;32057;47.830;19.046;2023-02-03T05:03:18;100937.34;;;0.23;89.09
46347;BME280;32057;47.830;19.046;2023-02-03T05:05:44;100933.22;;;0.25;88.00
46347;BME280;32057;47.830;19.046;2023-02-03T05:08:09;100936.97;;;0.30;88.71
46347;BME280;32057;47.830;19.046;2023-02-03T05:10:35;100930.97;;;0.29;89.83
46347;BME280;32057;47.830;19.046;2023-02-03T05:13:00;100933.19;;;0.36;88.42
46347;BME280;32057;47.830;19.046;2023-02-03T05:15:26;100931.84;;;0.42;90.36
46347;BME280;32057;47.830;19.046;2023-02-03T05:17:52;100932.28;;;0.36;87.99
46347;BME280;32057;47.830;19.046;2023-02-03T05:20:18;100931.84;;;0.42;88.09
46347;BME280;32057;47.830;19.046;2023-02-03T05:22:43;100934.50;;;0.43;87.42
46347;BME280;32057;47.830;19.046;2023-02-03T05:25:09;100935.16;;;0.52;89.52
46347;BME280;32057;47.830;19.046;2023-02-03T05:27:36;100937.16;;;0.56;90.03
46347;BME280;32057;47.830;19.046;2023-02-03T05:30:02;100937.16;;;0.56;90.13
46347;BME280;32057;47.830;19.046;2023-02-03T05:32:28;100939.72;;;0.56;90.34
46347;BME280;32057;47.830;19.046;2023-02-03T05:34:53;100946.50;;;0.56;89.95
46347;BME280;32057;47.830;19.046;2023-02-03T05:37:19;100954.09;;;0.54;91.17
46347;BME280;32057;47.830;19.046;2023-02-03T05:39:44;100948.53;;;0.48;89.42
46347;BME280;32057;47.830;19.046;2023-02-03T05:42:09;100947.53;;;0.46;91.25
46347;BME280;32057;47.830;19.046;2023-02-03T05:44:35;100953.44;;;0.45;91.74
46347;BME280;32057;47.830;19.046;2023-02-03T05:47:00;100950.97;;;0.47;90.87
46347;BME280;32057;47.830;19.046;2023-02-03T05:49:26;100944.41;;;0.50;92.76
46347;BME280;32057;47.830;19.046;2023-02-03T05:51:52;100948.53;;;0.48;92.82
46347;BME280;32057;47.830;19.046;2023-02-03T05:54:18;100955.09;;;0.45;92.96
46347;BME280;32057;47.830;19.046;2023-02-03T05:56:44;100955.78;;;0.42;90.84
46347;BME280;32057;47.830;19.046;2023-02-03T05:59:09;100949.88;;;0.43;89.88
46347;BME280;32057;47.830;19.046;2023-02-03T06:01:35;100960.00;;;0.42;88.27
46347;BME280;32057;47.830;19.046;2023-02-03T06:04:01;100962.91;;;0.46;88.03
46347;BME280;32057;47.830;19.046;2023-02-03T06:06:28;100961.44;;;0.50;86.88
46347;BME280;32057;47.830;19.046;2023-02-03T06:09:03;100965.91;;;0.52;85.59
46347;BME280;32057;47.830;19.046;2023-02-03T06:11:29;100958.22;;;0.52;87.27
46347;BME280;32057;47.830;19.046;2023-02-03T06:13:55;100972.59;;;0.50;85.60
46347;BME280;32057;47.830;19.046;2023-02-03T06:16:23;100965.63;;;0.61;87.78
46347;BME280;32057;47.830;19.046;2023-02-03T06:18:52;100957.38;;;0.65;87.56
46347;BME280;32057;47.830;19.046;2023-02-03T06:21:19;100973.63;;;0.66;88.20
46347;BME280;32057;47.830;19.046;2023-02-03T06:23:45;100965.19;;;0.67;87.86
46347;BME280;32057;47.830;19.046;2023-02-03T06:26:11;100960.50;;;0.73;89.67
46347;BME280;32057;47.830;19.046;2023-02-03T06:28:36;100954.81;;;0.65;88.89
46347;BME280;32057;47.830;19.046;2023-02-03T06:31:05;100945.34;;;0.76;90.31
46347;BME280;32057;47.830;19.046;2023-02-03T06:33:31;100942.22;;;0.80;89.66
46347;BME280;32057;47.830;19.046;2023-02-03T06:35:57;100948.34;;;0.82;88.37
46347;BME280;32057;47.830;19.046;2023-02-03T06:38:23;100940.44;;;0.79;88.34
46347;BME280;32057;47.830;19.046;2023-02-03T06:40:48;100934.59;;;0.82;89.32
46347;BME280;32057;47.830;19.046;2023-02-03T06:43:14;100930.63;;;0.73;84.63
46347;BME280;32057;47.830;19.046;2023-02-03T06:45:40;100931.50;;;0.74;85.03
46347;BME280;32057;47.830;19.046;2023-02-03T06:48:06;100924.16;;;0.78;86.23
46347;BME280;32057;47.830;19.046;2023-02-03T06:50:32;100924.28;;;0.80;84.52
46347;BME280;32057;47.830;19.046;2023-02-03T06:52:57;100932.53;;;0.76;83.91
46347;BME280;32057;47.830;19.046;2023-02-03T06:55:22;100924.94;;;0.77;83.74
46347;BME280;32057;47.830;19.046;2023-02-03T06:57:48;100929.72;;;0.85;85.75
46347;BME280;32057;47.830;19.046;2023-02-03T07:00:15;100924.13;;;0.90;85.22
46347;BME280;32057;47.830;19.046;2023-02-03T07:02:42;100923.22;;;0.90;82.89
46347;BME280;32057;47.830;19.046;2023-02-03T07:05:07;100912.50;;;0.95;86.23
46347;BME280;32057;47.830;19.046;2023-02-03T07:07:33;100907.38;;;0.95;86.43
46347;BME280;32057;47.830;19.046;2023-02-03T07:10:00;100914.19;;;0.95;88.69
46347;BME280;32057;47.830;19.046;2023-02-03T07:12:25;100912.50;;;0.95;87.92
46347;BME280;32057;47.830;19.046;2023-02-03T07:14:52;100921.97;;;0.96;89.47
46347;BME280;32057;47.830;19.046;2023-02-03T07:17:17;100918.78;;;0.87;89.74
46347;BME280;32057;47.830;19.046;2023-02-03T07:19:43;100920.00;;;0.92;89.66
46347;BME280;32057;47.830;19.046;2023-02-03T07:22:10;100920.00;;;0.92;88.88
46347;BME280;32057;47.830;19.046;2023-02-03T07:24:35;100931.41;;;0.84;86.48
46347;BME280;32057;47.830;19.046;2023-02-03T07:27:00;100934.56;;;0.93;87.37
46347;BME280;32057;47.830;19.046;2023-02-03T07:29:26;100932.81;;;0.92;88.05
46347;BME280;32057;47.830;19.046;2023-02-03T07:31:52;100940.16;;;0.88;88.88
46347;BME280;32057;47.830;19.046;2023-02-03T07:34:17;100943.81;;;0.91;89.33
46347;BME280;32057;47.830;19.046;2023-02-03T07:36:42;100940.81;;;0.97;89.11
46347;BME280;32057;47.830;19.046;2023-02-03T07:39:09;100944.47;;;1.01;90.23
46347;BME280;32057;47.830;19.046;2023-02-03T07:41:34;100946.22;;;1.02;89.47
46347;BME280;32057;47.830;19.046;2023-02-03T07:44:00;100934.69;;;0.95;88.28
46347;BME280;32057;47.830;19.046;2023-02-03T07:46:25;100938.47;;;1.00;88.71
46347;BME280;32057;47.830;19.046;2023-02-03T07:48:51;100941.09;;;1.02;88.93
46347;BME280;32057;47.830;19.046;2023-02-03T07:51:16;100934.75;;;1.08;91.16
46347;BME280;32057;47.830;19.046;2023-02-03T07:53:42;100938.06;;;1.07;88.62
46347;BME280;32057;47.830;19.046;2023-02-03T07:56:07;100936.50;;;1.09;87.65
46347;BME280;32057;47.830;19.046;2023-02-03T07:58:32;100944.53;;;1.14;88.41
46347;BME280;32057;47.830;19.046;2023-02-03T08:00:58;100950.00;;;1.07;87.05
46347;BME280;32057;47.830;19.046;2023-02-03T08:03:24;100945.88;;;1.09;87.61
46347;BME280;32057;47.830;19.046;2023-02-03T08:05:50;100944.09;;;1.08;85.47
46347;BME280;32057;47.830;19.046;2023-02-03T08:08:16;100947.09;;;1.14;85.11
46347;BME280;32057;47.830;19.046;2023-02-03T08:10:41;100945.00;;;1.08;85.36
46347;BME280;32057;47.830;19.046;2023-02-03T08:13:07;100939.88;;;1.08;86.70
46347;BME280;32057;47.830;19.046;2023-02-03T08:15:32;100945.34;;;1.01;86.90
46347;BME280;32057;47.830;19.046;2023-02-03T08:17:58;100951.75;;;0.94;87.25
46347;BME280;32057;47.830;19.046;2023-02-03T08:20:23;100950.28;;;0.98;88.49
46347;BME280;32057;47.830;19.046;2023-02-03T08:22:49;100947.22;;;1.04;89.75
46347;BME280;32057;47.830;19.046;2023-02-03T08:25:14;100955.47;;;0.99;88.85
46347;BME280;32057;47.830;19.046;2023-02-03T08:27:40;100949.00;;;1.05;89.70
46347;BME280;32057;47.830;19.046;2023-02-03T08:30:08;100955.31;;;1.10;90.92
46347;BME280;32057;47.830;19.046;2023-02-03T08:32:34;100956.78;;;1.18;90.90
46347;BME280;32057;47.830;19.046;2023-02-03T08:34:59;100964.94;;;1.26;91.16
46347;BME280;32057;47.830;19.046;2023-02-03T08:37:25;100961.38;;;1.24;90.46
46347;BME280;32057;47.830;19.046;2023-02-03T08:39:52;100958.94;;;1.25;90.20
46347;BME280;32057;47.830;19.046;2023-02-03T08:42:18;100957.59;;;1.30;91.24
46347;BME280;32057;47.830;19.046;2023-02-03T08:44:44;100947.81;;;1.25;90.97
46347;BME280;32057;47.830;19.046;2023-02-03T08:47:10;100950.09;;;1.33;91.23
46347;BME280;32057;47.830;19.046;2023-02-03T08:49:36;100947.75;;;1.36;90.96
46347;BME280;32057;47.830;19.046;2023-02-03T08:52:04;100954.28;;;1.45;90.62
46347;BME280;32057;47.830;19.046;2023-02-03T08:54:29;100948.16;;;1.43;91.64
46347;BME280;32057;47.830;19.046;2023-02-03T08:56:56;100945.69;;;1.44;93.13
46347;BME280;32057;47.830;19.046;2023-02-03T08:59:22;100944.00;;;1.45;93.21
46347;BME280;32057;47.830;19.046;2023-02-03T09:01:48;100929.22;;;1.41;94.70
46347;BME280;32057;47.830;19.046;2023-02-03T09:04:15;100940.25;;;1.39;96.37
46347;BME280;32057;47.830;19.046;2023-02-03T09:06:44;100940.63;;;1.32;98.34
46347;BME280;32057;47.830;19.046;2023-02-03T09:09:12;100939.22;;;1.24;100.00
46347;BME280;32057;47.830;19.046;2023-02-03T09:11:39;100943.63;;;1.13;100.00
46347;BME280;32057;47.830;19.046;2023-02-03T09:14:05;100940.88;;;1.10;100.00
46347;BME280;32057;47.830;19.046;2023-02-03T09:16:30;100940.47;;;1.17;100.00
46347;BME280;32057;47.830;19.046;2023-02-03T09:18:55;100930.31;;;1.19;100.00
46347;BME280;32057;47.830;19.046;2023-02-03T09:21:21;100926.09;;;1.19;100.00
46347;BME280;32057;47.830;19.046;2023-02-03T09:23:46;100922.69;;;1.07;100.00
46347;BME280;32057;47.830;19.046;2023-02-03T09:26:13;100919.72;;;1.01;100.00
46347;BME280;32057;47.830;19.046;2023-02-03T09:28:39;100921.81;;;1.07;100.00
46347;BME280;32057;47.830;19.046;2023-02-03T09:31:07;100921.00;;;1.08;100.00
46347;BME280;32057;47.830;19.046;2023-02-03T09:33:34;100912.66;;;1.10;100.00
46347;BME280;32057;47.830;19.046;2023-02-03T09:35:59;100919.03;;;1.04;100.00
46347;BME280;32057;47.830;19.046;2023-02-03T09:38:25;100905.75;;;1.09;100.00
46347;BME280;32057;47.830;19.046;2023-02-03T09:40:54;100901.50;;;1.10;100.00
46347;BME280;32057;47.830;19.046;2023-02-03T09:46:24;100905.63;;;1.08;100.00
46347;BME280;32057;47.830;19.046;2023-02-03T09:49:17;100902.50;;;1.12;100.00
46347;BME280;32057;47.830;19.046;2023-02-03T09:51:53;100896.38;;;1.10;100.00
46347;BME280;32057;47.830;19.046;2023-02-03T09:57:19;100884.56;;;1.12;100.00
46347;BME280;32057;47.830;19.046;2023-02-03T09:59:46;100873.91;;;1.06;100.00
46347;BME280;32057;47.830;19.046;2023-02-03T10:05:19;100865.22;;;1.04;100.00
46347;BME280;32057;47.830;19.046;2023-02-03T10:11:29;100857.56;;;1.17;100.00
46347;BME280;32057;47.830;19.046;2023-02-03T10:16:22;100851.66;;;1.18;100.00
46347;BME280;32057;47.830;19.046;2023-02-03T10:18:53;100836.38;;;1.19;100.00
46347;BME280;32057;47.830;19.046;2023-02-03T10:24:42;100823.25;;;1.15;100.00
46347;BME280;32057;47.830;19.046;2023-02-03T10:27:19;100820.69;;;1.15;100.00
46347;BME280;32057;47.830;19.046;2023-02-03T10:29:54;100814.59;;;1.13;100.00
46347;BME280;32057;47.830;19.046;2023-02-03T10:32:23;100809.47;;;1.13;100.00
46347;BME280;32057;47.830;19.046;2023-02-03T10:34:50;100797.22;;;1.09;100.00
46347;BME280;32057;47.830;19.046;2023-02-03T10:37:26;100788.25;;;1.15;100.00
46347;BME280;32057;47.830;19.046;2023-02-03T10:39:54;100777.13;;;1.15;100.00
46347;BME280;32057;47.830;19.046;2023-02-03T10:42:22;100778.91;;;1.16;100.00
46347;BME280;32057;47.830;19.046;2023-02-03T10:44:57;100776.13;;;1.13;100.00
46347;BME280;32057;47.830;19.046;2023-02-03T10:47:31;100774.34;;;1.12;100.00
46347;BME280;32057;47.830;19.046;2023-02-03T10:50:14;100767.69;;;1.14;100.00
46347;BME280;32057;47.830;19.046;2023-02-03T10:52:40;100754.84;;;1.14;100.00
46347;BME280;32057;47.830;19.046;2023-02-03T10:55:29;100759.28;;;1.16;100.00
46347;BME280;32057;47.830;19.046;2023-02-03T10:57:54;100754.16;;;1.16;100.00
46347;BME280;32057;47.830;19.046;2023-02-03T11:00:30;100749.91;;;1.17;100.00
46347;BME280;32057;47.830;19.046;2023-02-03T11:05:30;100736.13;;;1.15;100.00
46347;BME280;32057;47.830;19.046;2023-02-03T11:07:56;100724.28;;;1.17;100.00
46347;BME280;32057;47.830;19.046;2023-02-03T11:10:27;100719.16;;;1.17;100.00
46347;BME280;32057;47.830;19.046;2023-02-03T11:16:19;100704.59;;;1.16;100.00
46347;BME280;32057;47.830;19.046;2023-02-03T11:18:59;100702.09;;;1.17;100.00
46347;BME280;32057;47.830;19.046;2023-02-03T11:24:22;100690.19;;;1.18;100.00
46347;BME280;32057;47.830;19.046;2023-02-03T11:26:53;100680.13;;;1.21;100.00
46347;BME280;32057;47.830;19.046;2023-02-03T11:29:30;100670.75;;;1.22;100.00
46347;BME280;32057;47.830;19.046;2023-02-03T11:32:00;100658.03;;;1.23;100.00
46347;BME280;32057;47.830;19.046;2023-02-03T11:34:33;100646.19;;;1.25;100.00
46347;BME280;32057;47.830;19.046;2023-02-03T11:48:28;100612.97;;;1.27;100.00
46347;BME280;32057;47.830;19.046;2023-02-03T11:53:49;100600.06;;;1.25;100.00
46347;BME280;32057;47.830;19.046;2023-02-03T11:59:16;100577.78;;;1.24;100.00
46347;BME280;32057;47.830;19.046;2023-02-03T12:05:28;100579.75;;;1.28;100.00
46347;BME280;32057;47.830;19.046;2023-02-03T12:21:59;100509.34;;;1.23;100.00
46347;BME280;32057;47.830;19.046;2023-02-03T12:24:58;100503.25;;;1.21;100.00
46347;BME280;32057;47.830;19.046;2023-02-03T12:29:57;100487.25;;;1.25;100.00
46347;BME280;32057;47.830;19.046;2023-02-03T12:32:49;100476.22;;;1.26;100.00
46347;BME280;32057;47.830;19.046;2023-02-03T12:36:05;100469.41;;;1.27;100.00
46347;BME280;32057;47.830;19.046;2023-02-03T12:38:12;100463.41;;;1.26;100.00
46347;BME280;32057;47.830;19.046;2023-02-03T12:40:46;100450.75;;;1.29;100.00
46347;BME280;32057;47.830;19.046;2023-02-03T12:43:45;100439.88;;;1.33;100.00
46347;BME280;32057;47.830;19.046;2023-02-03T12:47:11;100438.91;;;1.31;100.00
46347;BME280;32057;47.830;19.046;2023-02-03T12:50:04;100427.16;;;1.35;100.00
46347;BME280;32057;47.830;19.046;2023-02-03T12:52:44;100421.16;;;1.34;100.00
46347;BME280;32057;47.830;19.046;2023-02-03T12:55:29;100411.88;;;1.36;100.00
46347;BME280;32057;47.830;19.046;2023-02-03T12:58:04;100404.81;;;1.32;100.00
46347;BME280;32057;47.830;19.046;2023-02-03T13:00:53;100401.53;;;1.35;100.00
46347;BME280;32057;47.830;19.046;2023-02-03T13:06:11;100380.16;;;1.34;100.00
46347;BME280;32057;47.830;19.046;2023-02-03T13:08:49;100375.81;;;1.33;100.00
46347;BME280;32057;47.830;19.046;2023-02-03T13:14:27;100366.97;;;1.28;100.00
46347;BME280;32057;47.830;19.046;2023-02-03T13:16:54;100362.63;;;1.27;100.00
46347;BME280;32057;47.830;19.046;2023-02-03T13:19:36;100353.44;;;1.31;100.00
46347;BME280;32057;47.830;19.046;2023-02-03T13:22:10;100355.56;;;1.38;100.00
46347;BME280;32057;47.830;19.046;2023-02-03T13:24:36;100339.91;;;1.33;100.00
46347;BME280;32057;47.830;19.046;2023-02-03T13:27:19;100341.34;;;1.28;100.00
46347;BME280;32057;47.830;19.046;2023-02-03T13:30:31;100328.00;;;1.34;100.00
46347;BME280;32057;47.830;19.046;2023-02-03T13:41:03;100309.97;;;1.32;100.00
46347;BME280;32057;47.830;19.046;2023-02-03T13:43:43;100297.78;;;1.28;100.00
46347;BME280;32057;47.830;19.046;2023-02-03T13:46:32;100295.88;;;1.26;100.00
46347;BME280;32057;47.830;19.046;2023-02-03T13:49:01;100296.72;;;1.25;100.00
46347;BME280;32057;47.830;19.046;2023-02-03T13:51:35;100281.31;;;1.25;100.00
46347;BME280;32057;47.830;19.046;2023-02-03T13:54:13;100288.91;;;1.23;100.00
46347;BME280;32057;47.830;19.046;2023-02-03T13:56:39;100270.00;;;1.21;100.00
46347;BME280;32057;47.830;19.046;2023-02-03T14:01:38;100259.22;;;1.27;100.00
46347;BME280;32057;47.830;19.046;2023-02-03T14:09:33;100245.06;;;1.33;100.00
46347;BME280;32057;47.830;19.046;2023-02-03T14:12:16;100241.09;;;1.38;100.00
46347;BME280;32057;47.830;19.046;2023-02-03T14:20:01;100229.03;;;1.37;100.00
46347;BME280;32057;47.830;19.046;2023-02-03T14:22:27;100212.00;;;1.38;100.00
46347;BME280;32057;47.830;19.046;2023-02-03T14:24:55;100219.44;;;1.33;100.00
46347;BME280;32057;47.830;19.046;2023-02-03T14:27:24;100218.72;;;1.36;100.00
46347;BME280;32057;47.830;19.046;2023-02-03T14:32:57;100195.72;;;1.37;100.00
46347;BME280;32057;47.830;19.046;2023-02-03T14:35:43;100193.00;;;1.34;100.00
46347;BME280;32057;47.830;19.046;2023-02-03T14:38:12;100186.44;;;1.39;100.00
46347;BME280;32057;47.830;19.046;2023-02-03T14:41:01;100186.69;;;1.44;100.00
46347;BME280;32057;47.830;19.046;2023-02-03T14:43:49;100177.66;;;1.51;100.00
46347;BME280;32057;47.830;19.046;2023-02-03T15:02:24;100141.84;;;1.69;100.00
46347;BME280;32057;47.830;19.046;2023-02-03T15:07:48;100126.22;;;1.81;100.00
46347;BME280;32057;47.830;19.046;2023-02-03T15:10:48;100128.13;;;1.85;100.00
46347;BME280;32057;47.830;19.046;2023-02-03T15:13:26;100119.00;;;1.90;100.00
46347;BME280;32057;47.830;19.046;2023-02-03T15:15:55;100115.50;;;2.06;100.00
46347;BME280;32057;47.830;19.046;2023-02-03T15:18:27;100106.06;;;2.05;100.00
46347;BME280;32057;47.830;19.046;2023-02-03T15:20:54;100098.75;;;2.12;100.00